createdAt,value
2018-08-18T00:04:20.322Z,74.08
2018-08-18T00:09:14.904Z,74.21
2018-08-18T00:14:09.449Z,73.42
2018-08-18T00:19:04.012Z,73.03
2018-08-18T00:24:08.208Z,72.98
2018-08-18T00:29:02.833Z,73.38
2018-08-18T00:33:57.547Z,72.94
2018-08-18T00:38:52.093Z,73.12
2018-08-18T00:43:49.032Z,72.79
2018-08-18T00:48:43.532Z,73.18
2018-08-18T00:53:38.037Z,73.22
2018-08-18T00:58:32.537Z,73.20
2018-08-18T01:03:27.073Z,74.06
2018-08-18T01:08:22.494Z,73.92
2018-08-18T01:13:17.091Z,74.16
2018-08-18T01:18:12.052Z,74.24
2018-08-18T01:23:06.624Z,73.83
2018-08-18T01:28:01.209Z,74.67
2018-08-18T01:32:55.708Z,74.51
2018-08-18T01:37:50.173Z,73.91
2018-08-18T01:42:44.669Z,73.63
2018-08-18T01:47:39.133Z,73.24
2018-08-18T01:52:36.029Z,74.88
2018-08-18T01:57:30.500Z,74.70
2018-08-18T02:02:28.963Z,75.15
2018-08-18T02:07:29.311Z,75.15
2018-08-18T02:12:24.431Z,75.74
2018-08-18T02:17:33.066Z,76.03
2018-08-18T02:22:28.171Z,76.49
2018-08-18T02:27:22.692Z,76.52
2018-08-18T02:32:40.233Z,77.36
2018-08-18T02:37:34.812Z,77.09
2018-08-18T02:42:29.337Z,77.13
2018-08-18T02:47:24.111Z,77.49
2018-08-18T02:52:28.595Z,77.92
2018-08-18T02:57:30.588Z,77.17
2018-08-18T03:02:25.160Z,76.47
2018-08-18T03:07:19.699Z,76.77
2018-08-18T03:12:14.225Z,77.02
2018-08-18T03:17:10.103Z,76.24
2018-08-18T03:22:04.767Z,76.48
2018-08-18T03:26:59.824Z,76.25
2018-08-18T03:31:54.753Z,76.61
2018-08-18T03:36:51.285Z,76.19
2018-08-18T03:41:46.495Z,76.84
2018-08-18T03:46:41.133Z,76.71
2018-08-18T03:51:40.740Z,76.69
2018-08-18T03:56:35.245Z,77.08
2018-08-18T04:01:58.867Z,76.28
2018-08-18T04:06:54.476Z,75.86
2018-08-18T04:11:49.109Z,75.49
2018-08-18T04:16:48.716Z,75.50
2018-08-18T04:21:43.196Z,76.42
2018-08-18T04:26:37.688Z,75.97
2018-08-18T04:31:34.176Z,76.38
2018-08-18T04:36:28.620Z,76.86
2018-08-18T04:41:23.484Z,77.17
2018-08-18T04:46:18.081Z,77.76
2018-08-18T04:51:12.545Z,77.44
2018-08-18T04:56:07.328Z,77.86
2018-08-18T05:01:01.848Z,76.92
2018-08-18T05:05:56.353Z,76.21
2018-08-18T05:10:50.829Z,75.54
2018-08-18T05:15:45.341Z,74.97
2018-08-18T05:20:39.817Z,74.06
2018-08-18T05:25:38.360Z,74.31
2018-08-18T05:30:32.857Z,74.29
2018-08-18T05:35:27.365Z,73.01
2018-08-18T05:40:21.892Z,72.37
2018-08-18T05:45:31.004Z,71.55
2018-08-18T05:50:27.244Z,71.39
2018-08-18T05:55:21.780Z,72.00
2018-08-18T06:00:23.572Z,72.58
2018-08-18T06:05:18.200Z,70.57
2018-08-18T06:10:12.708Z,71.57
2018-08-18T06:15:07.330Z,70.38
2018-08-18T06:20:02.079Z,70.75
2018-08-18T06:24:56.682Z,69.88
2018-08-18T06:29:52.349Z,71.26
2018-08-18T06:34:46.986Z,71.49
2018-08-18T06:39:56.653Z,70.84
2018-08-18T06:44:51.133Z,69.99
2018-08-18T06:49:45.577Z,70.72
2018-08-18T06:54:40.136Z,69.84
2018-08-18T06:59:34.593Z,69.31
2018-08-18T07:04:29.073Z,67.32
2018-08-18T07:09:23.623Z,68.31
2018-08-18T07:14:18.136Z,68.08
2018-08-18T07:19:12.659Z,66.52
2018-08-18T07:24:07.415Z,66.50
2018-08-18T07:29:02.176Z,66.02
2018-08-18T07:33:56.717Z,64.27
2018-08-18T07:38:51.468Z,64.05
2018-08-18T07:43:45.973Z,61.70
2018-08-18T07:48:40.655Z,59.09
2018-08-18T07:53:35.204Z,57.42
2018-08-18T07:58:29.746Z,57.76
2018-08-18T08:03:24.228Z,56.43
2018-08-18T08:08:18.716Z,56.09
2018-08-18T08:13:14.880Z,55.24
2018-08-18T08:18:12.351Z,55.03
2018-08-18T08:23:06.860Z,54.78
2018-08-18T08:28:01.546Z,54.46
2018-08-18T08:32:56.112Z,54.45
2018-08-18T08:37:53.021Z,55.29
2018-08-18T08:42:47.593Z,52.41
2018-08-18T08:47:42.449Z,51.52
2018-08-18T08:52:47.099Z,50.04
2018-08-18T08:57:41.573Z,49.69
2018-08-18T09:02:36.149Z,49.57
2018-08-18T09:07:30.658Z,48.08
2018-08-18T09:12:25.225Z,49.79
2018-08-18T09:17:19.734Z,50.93
2018-08-18T09:22:14.306Z,49.00
2018-08-18T09:27:08.856Z,49.86
2018-08-18T09:32:03.476Z,49.22
2018-08-18T09:36:58.013Z,49.65
2018-08-18T09:41:52.550Z,49.74
2018-08-18T09:46:47.035Z,49.96
2018-08-18T09:51:41.520Z,48.42
2018-08-18T09:56:36.065Z,49.54
2018-08-18T10:01:30.597Z,48.09
2018-08-18T10:06:25.163Z,48.72
2018-08-18T10:11:19.625Z,47.02
2018-08-18T10:16:14.196Z,47.71
2018-08-18T10:21:08.710Z,48.11
2018-08-18T10:26:03.330Z,47.80
2018-08-18T10:30:57.890Z,49.34
2018-08-18T10:35:52.391Z,48.59
2018-08-18T10:40:46.872Z,48.39
2018-08-18T10:45:41.388Z,46.00
2018-08-18T10:51:24.242Z,45.69
2018-08-18T10:56:18.746Z,47.60
2018-08-18T11:01:13.216Z,47.67
2018-08-18T11:06:07.938Z,47.84
2018-08-18T11:11:02.465Z,46.41
2018-08-18T11:15:57.003Z,45.37
2018-08-18T11:20:51.484Z,46.64
2018-08-18T11:25:49.645Z,46.19
2018-08-18T11:30:44.272Z,43.97
2018-08-18T11:35:39.288Z,43.93
2018-08-18T11:40:33.821Z,41.98
2018-08-18T11:45:29.401Z,41.84
2018-08-18T11:50:25.457Z,42.33
2018-08-18T11:55:20.965Z,40.81
2018-08-18T12:00:16.034Z,40.56
2018-08-18T12:05:10.545Z,40.70
2018-08-18T12:10:05.056Z,40.78
2018-08-18T12:14:59.602Z,41.28
2018-08-18T12:19:58.473Z,40.40
2018-08-18T12:24:57.360Z,40.85
2018-08-18T12:29:51.978Z,41.26
2018-08-18T12:34:46.525Z,40.77
2018-08-18T12:39:41.115Z,42.45
2018-08-18T12:44:35.752Z,42.76
2018-08-18T12:49:30.988Z,43.06
2018-08-18T12:54:25.502Z,41.24
2018-08-18T12:59:20.041Z,42.83
2018-08-18T13:04:17.946Z,42.30
2018-08-18T13:09:14.105Z,42.42
2018-08-18T13:14:08.765Z,42.25
2018-08-18T13:19:03.294Z,42.23
2018-08-18T13:24:00.166Z,43.04
2018-08-18T13:28:54.901Z,42.27
2018-08-18T13:33:49.361Z,41.76
2018-08-18T13:38:43.849Z,40.95
2018-08-18T13:43:46.391Z,42.28
2018-08-18T13:48:53.119Z,41.22
2018-08-18T13:53:52.190Z,41.72
2018-08-18T13:58:48.823Z,40.87
2018-08-18T14:03:43.352Z,40.53
2018-08-18T14:08:38.039Z,40.30
2018-08-18T14:13:32.521Z,40.07
2018-08-18T14:18:27.020Z,40.00
2018-08-18T14:23:22.350Z,40.96
2018-08-18T14:28:16.998Z,40.11
2018-08-18T14:33:11.574Z,40.16
2018-08-18T14:38:06.085Z,41.19
2018-08-18T14:43:00.677Z,39.58
2018-08-18T14:47:55.249Z,39.59
2018-08-18T14:52:49.861Z,39.49
2018-08-18T14:57:49.721Z,38.93
2018-08-18T15:02:44.216Z,38.42
2018-08-18T15:07:43.885Z,39.12
2018-08-18T15:12:38.492Z,38.55
2018-08-18T15:17:33.176Z,38.27
2018-08-18T15:22:27.965Z,38.06
2018-08-18T15:27:23.180Z,37.90
2018-08-18T15:32:17.752Z,38.15
2018-08-18T15:37:12.204Z,38.33
2018-08-18T15:42:06.725Z,37.29
2018-08-18T15:47:01.221Z,38.14
2018-08-18T15:51:56.036Z,38.43
2018-08-18T15:56:50.560Z,38.70
2018-08-18T16:01:45.068Z,39.12
2018-08-18T16:06:39.572Z,38.62
2018-08-18T16:11:34.260Z,39.33
2018-08-18T16:16:28.728Z,40.26
2018-08-18T16:21:24.564Z,38.88
2018-08-18T16:26:19.069Z,40.16
2018-08-18T16:31:13.810Z,39.92
2018-08-18T16:36:08.440Z,40.33
2018-08-18T16:41:03.060Z,41.17
2018-08-18T16:46:03.010Z,41.81
2018-08-18T16:50:57.544Z,42.17
2018-08-18T16:55:52.089Z,41.00
2018-08-18T17:01:00.062Z,42.03
2018-08-18T17:05:54.580Z,41.93
2018-08-18T17:10:49.097Z,42.85
2018-08-18T17:15:43.610Z,42.68
2018-08-18T17:20:39.632Z,44.55
2018-08-18T17:25:38.191Z,45.59
2018-08-18T17:30:32.664Z,46.22
2018-08-18T17:35:27.353Z,45.81
2018-08-18T17:40:21.864Z,45.48
2018-08-18T17:45:16.381Z,45.56
2018-08-18T17:50:10.921Z,45.23
2018-08-18T17:55:18.430Z,45.25
2018-08-18T18:00:22.995Z,46.30
2018-08-18T18:05:21.038Z,45.22
2018-08-18T18:10:17.306Z,45.33
2018-08-18T18:15:28.530Z,45.53
2018-08-18T18:20:23.120Z,46.21
2018-08-18T18:25:20.745Z,45.49
2018-08-18T18:30:15.293Z,45.95
2018-08-18T18:35:09.833Z,46.84
2018-08-18T18:40:08.510Z,48.45
2018-08-18T18:45:03.027Z,49.36
2018-08-18T18:49:57.544Z,48.78
2018-08-18T18:54:52.261Z,49.63
2018-08-18T18:59:51.785Z,48.39
2018-08-18T19:04:46.341Z,49.35
2018-08-18T19:09:40.962Z,49.65
2018-08-18T19:14:35.501Z,50.12
2018-08-18T19:19:30.001Z,50.27
2018-08-18T19:24:25.458Z,50.92
2018-08-18T19:29:20.897Z,50.92
2018-08-18T19:34:15.839Z,51.69
2018-08-18T19:39:10.325Z,53.23
2018-08-18T19:44:04.952Z,53.43
2018-08-18T19:48:59.485Z,54.16
2018-08-18T19:53:53.946Z,55.14
2018-08-18T19:58:48.463Z,54.45
2018-08-18T20:03:43.021Z,54.53
2018-08-18T20:08:37.649Z,53.95
2018-08-18T20:13:32.988Z,55.18
2018-08-18T20:18:27.464Z,56.30
2018-08-18T20:23:22.484Z,56.83
2018-08-18T20:28:17.053Z,57.79
2018-08-18T20:33:11.553Z,56.30
2018-08-18T20:38:06.128Z,58.54
2018-08-18T20:43:00.653Z,58.92
2018-08-18T20:47:55.183Z,58.96
2018-08-18T20:52:49.712Z,60.26
2018-08-18T20:57:44.197Z,61.14
2018-08-18T21:02:38.744Z,62.78
2018-08-18T21:07:35.156Z,63.20
2018-08-18T21:12:33.776Z,64.41
2018-08-18T21:17:28.964Z,63.34
2018-08-18T21:22:27.561Z,63.18
2018-08-18T21:27:22.053Z,62.83
2018-08-18T21:32:16.561Z,62.45
2018-08-18T21:37:11.065Z,62.05
2018-08-18T21:42:06.553Z,60.83
2018-08-18T21:47:01.079Z,60.64
2018-08-18T21:51:57.277Z,59.58
2018-08-18T21:56:51.768Z,58.92
2018-08-18T22:01:46.334Z,59.30
2018-08-18T22:06:40.856Z,59.28
2018-08-18T22:11:35.348Z,59.16
2018-08-18T22:16:29.887Z,59.50
2018-08-18T22:21:31.253Z,59.05
2018-08-18T22:26:25.805Z,59.05
2018-08-18T22:31:20.352Z,58.83
2018-08-18T22:36:14.966Z,59.24
2018-08-18T22:41:09.521Z,59.86
2018-08-18T22:46:04.049Z,60.13
2018-08-18T22:50:58.617Z,58.80
2018-08-18T22:55:53.149Z,59.38
2018-08-18T23:00:51.420Z,58.48
2018-08-18T23:05:45.945Z,58.64
2018-08-18T23:10:40.496Z,58.46
2018-08-18T23:15:34.964Z,58.68
2018-08-18T23:20:29.550Z,58.50
2018-08-18T23:25:25.665Z,58.68
2018-08-18T23:30:24.277Z,57.95
2018-08-18T23:35:18.829Z,59.32
2018-08-18T23:40:13.437Z,58.66
2018-08-18T23:45:07.975Z,59.16
2018-08-18T23:50:02.500Z,59.17
2018-08-18T23:54:57.084Z,59.28
2018-08-18T23:59:51.622Z,59.95
